sensor_id;sensor_type;location;lat;lon;timestamp;P1;durP1;ratioP1;P2;durP2;ratioP2
37065;SDS011;22981;43.080;25.550;2023-02-15T00:02:09;32.48;;;23.98;;
37065;SDS011;22981;43.080;25.550;2023-02-15T00:04:36;30.68;;;24.32;;
37065;SDS011;22981;43.080;25.550;2023-02-15T00:07:18;30.92;;;24.07;;
37065;SDS011;22981;43.080;25.550;2023-02-15T00:09:44;28.87;;;21.35;;
37065;SDS011;22981;43.080;25.550;2023-02-15T00:12:12;30.40;;;23.07;;
37065;SDS011;22981;43.080;25.550;2023-02-15T00:14:40;29.82;;;22.13;;
37065;SDS011;22981;43.080;25.550;2023-02-15T00:17:08;29.42;;;22.73;;
37065;SDS011;22981;43.080;25.550;2023-02-15T00:19:36;28.60;;;22.67;;
37065;SDS011;22981;43.080;25.550;2023-02-15T00:22:03;31.35;;;22.98;;
37065;SDS011;22981;43.080;25.550;2023-02-15T00:24:31;32.30;;;23.10;;
37065;SDS011;22981;43.080;25.550;2023-02-15T00:26:58;31.12;;;22.75;;
37065;SDS011;22981;43.080;25.550;2023-02-15T00:29:26;31.20;;;22.35;;
37065;SDS011;22981;43.080;25.550;2023-02-15T00:31:54;31.82;;;23.47;;
37065;SDS011;22981;43.080;25.550;2023-02-15T00:34:22;39.60;;;29.05;;
37065;SDS011;22981;43.080;25.550;2023-02-15T00:36:51;34.70;;;25.72;;
37065;SDS011;22981;43.080;25.550;2023-02-15T00:39:19;34.40;;;26.23;;
37065;SDS011;22981;43.080;25.550;2023-02-15T00:41:47;37.10;;;27.35;;
37065;SDS011;22981;43.080;25.550;2023-02-15T00:44:15;35.50;;;26.42;;
37065;SDS011;22981;43.080;25.550;2023-02-15T00:46:42;29.82;;;23.25;;
37065;SDS011;22981;43.080;25.550;2023-02-15T00:49:10;30.97;;;23.20;;
37065;SDS011;22981;43.080;25.550;2023-02-15T00:51:37;31.80;;;23.30;;
37065;SDS011;22981;43.080;25.550;2023-02-15T00:54:05;33.28;;;23.65;;
37065;SDS011;22981;43.080;25.550;2023-02-15T00:56:33;33.15;;;24.00;;
37065;SDS011;22981;43.080;25.550;2023-02-15T00:59:00;31.75;;;23.62;;
37065;SDS011;22981;43.080;25.550;2023-02-15T01:01:28;33.60;;;24.98;;
37065;SDS011;22981;43.080;25.550;2023-02-15T01:03:56;33.00;;;24.00;;
37065;SDS011;22981;43.080;25.550;2023-02-15T01:06:23;33.48;;;24.70;;
37065;SDS011;22981;43.080;25.550;2023-02-15T01:08:51;31.95;;;23.18;;
37065;SDS011;22981;43.080;25.550;2023-02-15T01:11:20;30.90;;;22.80;;
37065;SDS011;22981;43.080;25.550;2023-02-15T01:13:52;29.63;;;23.10;;
37065;SDS011;22981;43.080;25.550;2023-02-15T01:18:48;33.35;;;23.70;;
37065;SDS011;22981;43.080;25.550;2023-02-15T01:21:17;33.88;;;24.30;;
37065;SDS011;22981;43.080;25.550;2023-02-15T01:23:46;31.37;;;23.90;;
37065;SDS011;22981;43.080;25.550;2023-02-15T01:26:14;32.58;;;24.23;;
37065;SDS011;22981;43.080;25.550;2023-02-15T01:28:42;32.42;;;24.23;;
37065;SDS011;22981;43.080;25.550;2023-02-15T01:31:15;32.20;;;24.12;;
37065;SDS011;22981;43.080;25.550;2023-02-15T01:33:43;32.63;;;23.40;;
37065;SDS011;22981;43.080;25.550;2023-02-15T01:36:12;30.02;;;23.07;;
37065;SDS011;22981;43.080;25.550;2023-02-15T01:38:39;30.80;;;23.22;;
37065;SDS011;22981;43.080;25.550;2023-02-15T01:41:07;33.00;;;23.07;;
37065;SDS011;22981;43.080;25.550;2023-02-15T01:43:49;33.30;;;22.70;;
37065;SDS011;22981;43.080;25.550;2023-02-15T01:46:19;31.27;;;22.90;;
37065;SDS011;22981;43.080;25.550;2023-02-15T01:48:50;28.83;;;22.10;;
37065;SDS011;22981;43.080;25.550;2023-02-15T01:51:20;49.53;;;33.98;;
37065;SDS011;22981;43.080;25.550;2023-02-15T01:54:01;49.85;;;34.75;;
37065;SDS011;22981;43.080;25.550;2023-02-15T01:56:49;50.95;;;34.50;;
37065;SDS011;22981;43.080;25.550;2023-02-15T01:59:19;44.73;;;32.03;;
37065;SDS011;22981;43.080;25.550;2023-02-15T02:01:47;49.05;;;34.23;;
37065;SDS011;22981;43.080;25.550;2023-02-15T02:04:28;55.95;;;37.00;;
37065;SDS011;22981;43.080;25.550;2023-02-15T02:07:01;49.77;;;34.85;;
37065;SDS011;22981;43.080;25.550;2023-02-15T02:09:30;64.15;;;40.17;;
37065;SDS011;22981;43.080;25.550;2023-02-15T02:11:58;60.88;;;40.90;;
37065;SDS011;22981;43.080;25.550;2023-02-15T02:14:27;51.85;;;34.00;;
37065;SDS011;22981;43.080;25.550;2023-02-15T02:17:06;56.50;;;37.25;;
37065;SDS011;22981;43.080;25.550;2023-02-15T02:25:06;60.40;;;42.53;;
37065;SDS011;22981;43.080;25.550;2023-02-15T02:27:48;58.65;;;39.42;;
37065;SDS011;22981;43.080;25.550;2023-02-15T02:30:35;51.55;;;36.35;;
37065;SDS011;22981;43.080;25.550;2023-02-15T02:35:43;73.37;;;49.83;;
37065;SDS011;22981;43.080;25.550;2023-02-15T02:38:25;69.85;;;48.42;;
37065;SDS011;22981;43.080;25.550;2023-02-15T02:43:50;75.80;;;51.60;;
37065;SDS011;22981;43.080;25.550;2023-02-15T02:46:37;76.30;;;49.65;;
37065;SDS011;22981;43.080;25.550;2023-02-15T02:49:11;55.88;;;40.17;;
37065;SDS011;22981;43.080;25.550;2023-02-15T02:51:39;50.75;;;36.08;;
37065;SDS011;22981;43.080;25.550;2023-02-15T02:54:06;47.75;;;34.78;;
37065;SDS011;22981;43.080;25.550;2023-02-15T02:56:45;44.90;;;33.60;;
37065;SDS011;22981;43.080;25.550;2023-02-15T02:59:18;46.58;;;33.02;;
37065;SDS011;22981;43.080;25.550;2023-02-15T03:01:51;39.42;;;29.23;;
37065;SDS011;22981;43.080;25.550;2023-02-15T03:04:27;43.20;;;30.60;;
37065;SDS011;22981;43.080;25.550;2023-02-15T03:07:04;47.43;;;31.20;;
37065;SDS011;22981;43.080;25.550;2023-02-15T03:09:34;47.00;;;30.77;;
37065;SDS011;22981;43.080;25.550;2023-02-15T03:12:05;49.25;;;36.63;;
37065;SDS011;22981;43.080;25.550;2023-02-15T03:14:33;127.62;;;74.03;;
37065;SDS011;22981;43.080;25.550;2023-02-15T03:17:01;72.62;;;49.00;;
37065;SDS011;22981;43.080;25.550;2023-02-15T03:19:33;77.30;;;47.65;;
37065;SDS011;22981;43.080;25.550;2023-02-15T03:22:10;60.95;;;41.53;;
37065;SDS011;22981;43.080;25.550;2023-02-15T03:24:37;63.30;;;42.10;;
37065;SDS011;22981;43.080;25.550;2023-02-15T03:27:07;53.50;;;36.53;;
37065;SDS011;22981;43.080;25.550;2023-02-15T03:29:36;52.70;;;35.33;;
37065;SDS011;22981;43.080;25.550;2023-02-15T03:32:05;49.65;;;35.05;;
37065;SDS011;22981;43.080;25.550;2023-02-15T03:34:35;53.02;;;34.00;;
37065;SDS011;22981;43.080;25.550;2023-02-15T03:37:19;50.17;;;33.65;;
37065;SDS011;22981;43.080;25.550;2023-02-15T03:39:50;54.03;;;34.75;;
37065;SDS011;22981;43.080;25.550;2023-02-15T03:42:25;60.73;;;37.75;;
37065;SDS011;22981;43.080;25.550;2023-02-15T03:44:57;55.90;;;35.20;;
37065;SDS011;22981;43.080;25.550;2023-02-15T03:47:29;46.05;;;31.68;;
37065;SDS011;22981;43.080;25.550;2023-02-15T03:50:02;42.98;;;29.10;;
37065;SDS011;22981;43.080;25.550;2023-02-15T03:52:33;41.65;;;28.17;;
37065;SDS011;22981;43.080;25.550;2023-02-15T03:55:02;41.10;;;28.73;;
37065;SDS011;22981;43.080;25.550;2023-02-15T03:57:30;46.63;;;32.63;;
37065;SDS011;22981;43.080;25.550;2023-02-15T04:00:17;46.05;;;32.33;;
37065;SDS011;22981;43.080;25.550;2023-02-15T04:06:03;50.90;;;32.23;;
37065;SDS011;22981;43.080;25.550;2023-02-15T04:08:31;96.95;;;58.73;;
37065;SDS011;22981;43.080;25.550;2023-02-15T04:11:16;75.55;;;48.25;;
37065;SDS011;22981;43.080;25.550;2023-02-15T04:13:43;79.77;;;49.48;;
37065;SDS011;22981;43.080;25.550;2023-02-15T04:16:11;111.40;;;69.80;;
37065;SDS011;22981;43.080;25.550;2023-02-15T04:18:40;88.67;;;56.42;;
37065;SDS011;22981;43.080;25.550;2023-02-15T04:21:28;77.17;;;49.00;;
37065;SDS011;22981;43.080;25.550;2023-02-15T04:24:14;57.80;;;41.20;;
37065;SDS011;22981;43.080;25.550;2023-02-15T04:26:59;58.42;;;39.00;;
37065;SDS011;22981;43.080;25.550;2023-02-15T04:29:28;57.13;;;39.58;;
37065;SDS011;22981;43.080;25.550;2023-02-15T04:31:57;58.35;;;35.70;;
37065;SDS011;22981;43.080;25.550;2023-02-15T04:34:25;50.90;;;34.15;;
37065;SDS011;22981;43.080;25.550;2023-02-15T04:36:53;56.60;;;38.33;;
37065;SDS011;22981;43.080;25.550;2023-02-15T04:39:21;53.10;;;36.65;;
37065;SDS011;22981;43.080;25.550;2023-02-15T04:41:48;80.47;;;51.85;;
37065;SDS011;22981;43.080;25.550;2023-02-15T04:44:16;81.22;;;53.28;;
37065;SDS011;22981;43.080;25.550;2023-02-15T04:46:43;83.87;;;57.83;;
37065;SDS011;22981;43.080;25.550;2023-02-15T04:49:11;87.82;;;59.65;;
37065;SDS011;22981;43.080;25.550;2023-02-15T04:51:38;86.28;;;57.38;;
37065;SDS011;22981;43.080;25.550;2023-02-15T04:54:06;80.57;;;54.45;;
37065;SDS011;22981;43.080;25.550;2023-02-15T04:56:33;74.12;;;51.28;;
37065;SDS011;22981;43.080;25.550;2023-02-15T04:59:03;82.85;;;55.48;;
37065;SDS011;22981;43.080;25.550;2023-02-15T05:01:31;86.72;;;57.53;;
37065;SDS011;22981;43.080;25.550;2023-02-15T05:03:58;81.10;;;53.80;;
37065;SDS011;22981;43.080;25.550;2023-02-15T05:06:26;73.50;;;48.50;;
37065;SDS011;22981;43.080;25.550;2023-02-15T05:08:53;74.03;;;48.45;;
37065;SDS011;22981;43.080;25.550;2023-02-15T05:11:21;100.55;;;62.23;;
37065;SDS011;22981;43.080;25.550;2023-02-15T05:13:49;82.60;;;53.40;;
37065;SDS011;22981;43.080;25.550;2023-02-15T05:16:16;75.83;;;48.92;;
37065;SDS011;22981;43.080;25.550;2023-02-15T05:18:44;72.92;;;47.33;;
37065;SDS011;22981;43.080;25.550;2023-02-15T05:21:12;73.95;;;48.87;;
37065;SDS011;22981;43.080;25.550;2023-02-15T05:23:41;73.20;;;48.35;;
37065;SDS011;22981;43.080;25.550;2023-02-15T05:26:12;89.90;;;58.50;;
37065;SDS011;22981;43.080;25.550;2023-02-15T05:28:59;94.00;;;60.78;;
37065;SDS011;22981;43.080;25.550;2023-02-15T05:31:26;100.85;;;63.58;;
37065;SDS011;22981;43.080;25.550;2023-02-15T05:33:54;98.95;;;64.35;;
37065;SDS011;22981;43.080;25.550;2023-02-15T05:36:21;103.07;;;64.70;;
37065;SDS011;22981;43.080;25.550;2023-02-15T05:38:49;87.57;;;59.58;;
37065;SDS011;22981;43.080;25.550;2023-02-15T05:41:16;82.80;;;55.28;;
37065;SDS011;22981;43.080;25.550;2023-02-15T05:43:44;107.05;;;72.05;;
37065;SDS011;22981;43.080;25.550;2023-02-15T05:46:12;100.95;;;70.45;;
37065;SDS011;22981;43.080;25.550;2023-02-15T05:48:39;99.85;;;68.40;;
37065;SDS011;22981;43.080;25.550;2023-02-15T05:51:10;95.53;;;62.98;;
37065;SDS011;22981;43.080;25.550;2023-02-15T05:53:43;91.70;;;60.25;;
37065;SDS011;22981;43.080;25.550;2023-02-15T05:56:13;93.40;;;67.45;;
37065;SDS011;22981;43.080;25.550;2023-02-15T05:58:44;75.65;;;50.00;;
37065;SDS011;22981;43.080;25.550;2023-02-15T06:01:18;63.25;;;45.10;;
37065;SDS011;22981;43.080;25.550;2023-02-15T06:03:43;57.48;;;38.53;;
37065;SDS011;22981;43.080;25.550;2023-02-15T06:06:11;88.95;;;54.55;;
37065;SDS011;22981;43.080;25.550;2023-02-15T06:08:38;165.92;;;95.42;;
37065;SDS011;22981;43.080;25.550;2023-02-15T06:11:06;62.93;;;42.43;;
37065;SDS011;22981;43.080;25.550;2023-02-15T06:13:34;49.63;;;33.73;;
37065;SDS011;22981;43.080;25.550;2023-02-15T06:16:02;46.15;;;33.15;;
37065;SDS011;22981;43.080;25.550;2023-02-15T06:18:29;50.50;;;35.58;;
37065;SDS011;22981;43.080;25.550;2023-02-15T06:20:57;53.38;;;39.38;;
37065;SDS011;22981;43.080;25.550;2023-02-15T06:23:25;63.05;;;47.10;;
37065;SDS011;22981;43.080;25.550;2023-02-15T06:25:52;59.65;;;43.75;;
37065;SDS011;22981;43.080;25.550;2023-02-15T06:28:20;56.18;;;39.25;;
37065;SDS011;22981;43.080;25.550;2023-02-15T06:30:47;54.80;;;37.30;;
37065;SDS011;22981;43.080;25.550;2023-02-15T06:33:15;52.58;;;38.45;;
37065;SDS011;22981;43.080;25.550;2023-02-15T06:35:42;51.53;;;36.10;;
37065;SDS011;22981;43.080;25.550;2023-02-15T06:38:12;96.28;;;58.25;;
37065;SDS011;22981;43.080;25.550;2023-02-15T06:40:39;111.83;;;66.80;;
37065;SDS011;22981;43.080;25.550;2023-02-15T06:43:07;140.05;;;82.78;;
37065;SDS011;22981;43.080;25.550;2023-02-15T06:45:35;89.52;;;54.03;;
37065;SDS011;22981;43.080;25.550;2023-02-15T06:48:02;84.10;;;56.30;;
37065;SDS011;22981;43.080;25.550;2023-02-15T06:50:32;100.12;;;71.25;;
37065;SDS011;22981;43.080;25.550;2023-02-15T06:52:59;110.95;;;80.12;;
37065;SDS011;22981;43.080;25.550;2023-02-15T06:55:27;69.82;;;50.63;;
37065;SDS011;22981;43.080;25.550;2023-02-15T06:57:54;59.70;;;41.45;;
37065;SDS011;22981;43.080;25.550;2023-02-15T07:00:22;57.23;;;43.50;;
37065;SDS011;22981;43.080;25.550;2023-02-15T07:02:58;63.78;;;46.25;;
37065;SDS011;22981;43.080;25.550;2023-02-15T07:05:23;64.32;;;45.28;;
37065;SDS011;22981;43.080;25.550;2023-02-15T07:07:53;71.60;;;52.48;;
37065;SDS011;22981;43.080;25.550;2023-02-15T07:10:21;78.30;;;53.92;;
37065;SDS011;22981;43.080;25.550;2023-02-15T07:12:48;72.58;;;51.48;;
37065;SDS011;22981;43.080;25.550;2023-02-15T07:15:16;73.07;;;52.65;;
37065;SDS011;22981;43.080;25.550;2023-02-15T07:17:47;70.50;;;51.35;;
37065;SDS011;22981;43.080;25.550;2023-02-15T07:20:21;77.65;;;55.78;;
37065;SDS011;22981;43.080;25.550;2023-02-15T07:22:49;79.00;;;56.75;;
37065;SDS011;22981;43.080;25.550;2023-02-15T07:25:17;81.42;;;56.55;;
37065;SDS011;22981;43.080;25.550;2023-02-15T07:27:45;77.80;;;55.78;;
37065;SDS011;22981;43.080;25.550;2023-02-15T07:30:14;82.75;;;57.62;;
37065;SDS011;22981;43.080;25.550;2023-02-15T07:32:42;77.53;;;53.58;;
37065;SDS011;22981;43.080;25.550;2023-02-15T07:35:28;65.65;;;47.23;;
37065;SDS011;22981;43.080;25.550;2023-02-15T07:37:55;68.90;;;48.02;;
37065;SDS011;22981;43.080;25.550;2023-02-15T07:40:23;67.55;;;46.42;;
37065;SDS011;22981;43.080;25.550;2023-02-15T07:42:51;63.78;;;47.83;;
37065;SDS011;22981;43.080;25.550;2023-02-15T07:45:20;66.57;;;47.62;;
37065;SDS011;22981;43.080;25.550;2023-02-15T07:47:48;67.32;;;49.50;;
37065;SDS011;22981;43.080;25.550;2023-02-15T07:50:16;74.82;;;51.13;;
37065;SDS011;22981;43.080;25.550;2023-02-15T07:52:43;70.47;;;49.77;;
37065;SDS011;22981;43.080;25.550;2023-02-15T07:55:11;63.30;;;46.58;;
37065;SDS011;22981;43.080;25.550;2023-02-15T07:57:43;62.90;;;44.38;;
37065;SDS011;22981;43.080;25.550;2023-02-15T08:00:11;45.48;;;33.53;;
37065;SDS011;22981;43.080;25.550;2023-02-15T08:02:41;57.83;;;40.38;;
37065;SDS011;22981;43.080;25.550;2023-02-15T08:05:08;46.63;;;32.85;;
37065;SDS011;22981;43.080;25.550;2023-02-15T08:07:36;38.78;;;28.98;;
37065;SDS011;22981;43.080;25.550;2023-02-15T08:10:04;38.08;;;26.07;;
37065;SDS011;22981;43.080;25.550;2023-02-15T08:12:32;26.10;;;19.40;;
37065;SDS011;22981;43.080;25.550;2023-02-15T08:14:59;29.20;;;19.55;;
37065;SDS011;22981;43.080;25.550;2023-02-15T08:17:27;25.57;;;17.98;;
37065;SDS011;22981;43.080;25.550;2023-02-15T08:19:54;23.50;;;17.90;;
37065;SDS011;22981;43.080;25.550;2023-02-15T08:22:22;25.48;;;18.75;;
37065;SDS011;22981;43.080;25.550;2023-02-15T08:24:51;26.27;;;18.50;;
37065;SDS011;22981;43.080;25.550;2023-02-15T08:27:19;23.73;;;17.48;;
37065;SDS011;22981;43.080;25.550;2023-02-15T08:29:48;21.73;;;16.20;;
37065;SDS011;22981;43.080;25.550;2023-02-15T08:32:15;23.15;;;15.83;;
37065;SDS011;22981;43.080;25.550;2023-02-15T08:34:43;22.50;;;18.32;;
37065;SDS011;22981;43.080;25.550;2023-02-15T08:37:10;21.52;;;16.27;;
37065;SDS011;22981;43.080;25.550;2023-02-15T08:39:38;21.25;;;15.25;;
37065;SDS011;22981;43.080;25.550;2023-02-15T08:42:07;24.50;;;17.23;;
37065;SDS011;22981;43.080;25.550;2023-02-15T08:44:35;20.37;;;15.20;;
37065;SDS011;22981;43.080;25.550;2023-02-15T08:47:02;20.02;;;14.90;;
37065;SDS011;22981;43.080;25.550;2023-02-15T08:49:30;20.10;;;15.05;;
37065;SDS011;22981;43.080;25.550;2023-02-15T08:51:58;19.25;;;14.55;;
37065;SDS011;22981;43.080;25.550;2023-02-15T08:54:26;18.90;;;14.73;;
37065;SDS011;22981;43.080;25.550;2023-02-15T08:56:53;21.45;;;15.78;;
37065;SDS011;22981;43.080;25.550;2023-02-15T08:59:21;18.45;;;14.80;;
37065;SDS011;22981;43.080;25.550;2023-02-15T09:01:51;18.70;;;14.47;;
37065;SDS011;22981;43.080;25.550;2023-02-15T09:04:19;17.48;;;13.78;;
37065;SDS011;22981;43.080;25.550;2023-02-15T09:06:48;16.65;;;13.68;;
37065;SDS011;22981;43.080;25.550;2023-02-15T09:09:17;19.15;;;14.03;;
37065;SDS011;22981;43.080;25.550;2023-02-15T09:11:46;16.82;;;13.55;;
37065;SDS011;22981;43.080;25.550;2023-02-15T09:14:16;19.67;;;14.95;;
37065;SDS011;22981;43.080;25.550;2023-02-15T09:16:45;18.45;;;14.07;;
37065;SDS011;22981;43.080;25.550;2023-02-15T09:19:16;16.87;;;13.83;;
37065;SDS011;22981;43.080;25.550;2023-02-15T09:21:45;18.35;;;13.05;;
37065;SDS011;22981;43.080;25.550;2023-02-15T09:24:13;16.75;;;13.43;;
37065;SDS011;22981;43.080;25.550;2023-02-15T09:26:43;16.65;;;12.68;;
37065;SDS011;22981;43.080;25.550;2023-02-15T09:29:12;18.57;;;13.60;;
37065;SDS011;22981;43.080;25.550;2023-02-15T09:31:45;16.80;;;13.30;;
37065;SDS011;22981;43.080;25.550;2023-02-15T09:34:15;18.82;;;14.07;;
37065;SDS011;22981;43.080;25.550;2023-02-15T09:36:44;18.67;;;14.40;;
37065;SDS011;22981;43.080;25.550;2023-02-15T09:39:15;17.92;;;15.03;;
37065;SDS011;22981;43.080;25.550;2023-02-15T09:44:33;17.98;;;12.90;;
37065;SDS011;22981;43.080;25.550;2023-02-15T09:50:21;21.07;;;14.78;;
37065;SDS011;22981;43.080;25.550;2023-02-15T09:55:51;15.80;;;13.03;;
37065;SDS011;22981;43.080;25.550;2023-02-15T09:58:32;15.05;;;11.28;;
37065;SDS011;22981;43.080;25.550;2023-02-15T10:04:23;15.10;;;13.08;;
37065;SDS011;22981;43.080;25.550;2023-02-15T10:23:51;14.03;;;11.53;;
37065;SDS011;22981;43.080;25.550;2023-02-15T10:26:28;15.48;;;12.20;;
37065;SDS011;22981;43.080;25.550;2023-02-15T10:29:03;14.28;;;12.15;;
37065;SDS011;22981;43.080;25.550;2023-02-15T10:39:52;17.60;;;12.40;;
37065;SDS011;22981;43.080;25.550;2023-02-15T10:42:40;16.30;;;12.28;;
37065;SDS011;22981;43.080;25.550;2023-02-15T10:45:20;15.23;;;12.07;;
37065;SDS011;22981;43.080;25.550;2023-02-15T10:48:31;13.50;;;11.22;;
37065;SDS011;22981;43.080;25.550;2023-02-15T10:50:55;111.55;;;100.18;;
37065;SDS011;22981;43.080;25.550;2023-02-15T10:56:24;13.95;;;12.05;;
37065;SDS011;22981;43.080;25.550;2023-02-15T11:04:47;20.82;;;16.62;;
37065;SDS011;22981;43.080;25.550;2023-02-15T11:07:08;16.73;;;13.48;;
37065;SDS011;22981;43.080;25.550;2023-02-15T11:09:38;13.05;;;11.40;;
37065;SDS011;22981;43.080;25.550;2023-02-15T11:12:11;15.55;;;12.10;;
37065;SDS011;22981;43.080;25.550;2023-02-15T11:14:45;18.52;;;13.60;;
37065;SDS011;22981;43.080;25.550;2023-02-15T11:17:22;16.20;;;12.03;;
37065;SDS011;22981;43.080;25.550;2023-02-15T11:20:06;15.32;;;12.37;;
37065;SDS011;22981;43.080;25.550;2023-02-15T11:22:33;13.33;;;11.90;;
37065;SDS011;22981;43.080;25.550;2023-02-15T11:25:01;14.03;;;11.53;;
37065;SDS011;22981;43.080;25.550;2023-02-15T11:27:31;17.17;;;12.23;;
37065;SDS011;22981;43.080;25.550;2023-02-15T11:30:03;14.70;;;11.20;;
37065;SDS011;22981;43.080;25.550;2023-02-15T11:32:43;14.60;;;11.93;;
37065;SDS011;22981;43.080;25.550;2023-02-15T11:37:50;13.48;;;11.35;;
37065;SDS011;22981;43.080;25.550;2023-02-15T11:40:26;12.68;;;9.93;;
37065;SDS011;22981;43.080;25.550;2023-02-15T11:43:11;13.18;;;10.28;;
37065;SDS011;22981;43.080;25.550;2023-02-15T11:45:46;11.18;;;9.98;;
37065;SDS011;22981;43.080;25.550;2023-02-15T11:48:14;11.45;;;9.88;;
37065;SDS011;22981;43.080;25.550;2023-02-15T11:50:43;13.55;;;9.78;;
37065;SDS011;22981;43.080;25.550;2023-02-15T11:53:16;14.58;;;9.43;;
37065;SDS011;22981;43.080;25.550;2023-02-15T11:55:47;11.68;;;9.80;;
37065;SDS011;22981;43.080;25.550;2023-02-15T12:00:52;12.68;;;8.85;;
37065;SDS011;22981;43.080;25.550;2023-02-15T12:06:04;14.65;;;9.50;;
37065;SDS011;22981;43.080;25.550;2023-02-15T12:08:37;14.63;;;11.38;;
37065;SDS011;22981;43.080;25.550;2023-02-15T12:11:07;21.70;;;14.58;;
37065;SDS011;22981;43.080;25.550;2023-02-15T12:13:55;14.55;;;13.15;;
37065;SDS011;22981;43.080;25.550;2023-02-15T12:16:25;12.58;;;9.68;;
37065;SDS011;22981;43.080;25.550;2023-02-15T12:18:55;12.63;;;10.60;;
37065;SDS011;22981;43.080;25.550;2023-02-15T12:21:28;16.77;;;10.55;;
37065;SDS011;22981;43.080;25.550;2023-02-15T12:24:03;15.90;;;11.35;;
37065;SDS011;22981;43.080;25.550;2023-02-15T12:26:33;16.15;;;10.78;;
37065;SDS011;22981;43.080;25.550;2023-02-15T12:31:46;17.75;;;11.73;;
37065;SDS011;22981;43.080;25.550;2023-02-15T12:34:21;19.23;;;13.70;;
37065;SDS011;22981;43.080;25.550;2023-02-15T12:36:51;14.47;;;12.00;;
37065;SDS011;22981;43.080;25.550;2023-02-15T12:39:22;13.50;;;10.93;;
37065;SDS011;22981;43.080;25.550;2023-02-15T12:47:02;12.30;;;9.63;;
37065;SDS011;22981;43.080;25.550;2023-02-15T12:49:34;12.30;;;10.45;;
37065;SDS011;22981;43.080;25.550;2023-02-15T12:52:46;13.65;;;10.75;;
37065;SDS011;22981;43.080;25.550;2023-02-15T12:54:47;12.45;;;9.95;;
37065;SDS011;22981;43.080;25.550;2023-02-15T12:57:33;10.40;;;8.83;;
37065;SDS011;22981;43.080;25.550;2023-02-15T13:05:10;11.90;;;9.98;;
37065;SDS011;22981;43.080;25.550;2023-02-15T13:07:35;13.65;;;11.12;;
37065;SDS011;22981;43.080;25.550;2023-02-15T13:10:04;13.55;;;10.20;;
37065;SDS011;22981;43.080;25.550;2023-02-15T13:12:34;11.22;;;9.40;;
37065;SDS011;22981;43.080;25.550;2023-02-15T13:15:02;16.57;;;9.93;;
37065;SDS011;22981;43.080;25.550;2023-02-15T13:17:31;12.28;;;10.40;;
37065;SDS011;22981;43.080;25.550;2023-02-15T13:20:09;11.78;;;10.18;;
37065;SDS011;22981;43.080;25.550;2023-02-15T13:22:40;12.30;;;9.50;;
37065;SDS011;22981;43.080;25.550;2023-02-15T13:25:20;12.15;;;9.80;;
37065;SDS011;22981;43.080;25.550;2023-02-15T13:27:54;11.28;;;9.80;;
37065;SDS011;22981;43.080;25.550;2023-02-15T13:30:33;11.22;;;9.85;;
37065;SDS011;22981;43.080;25.550;2023-02-15T13:33:04;17.15;;;10.95;;
37065;SDS011;22981;43.080;25.550;2023-02-15T13:35:36;13.62;;;11.55;;
37065;SDS011;22981;43.080;25.550;2023-02-15T13:40:58;12.93;;;10.30;;
37065;SDS011;22981;43.080;25.550;2023-02-15T13:46:07;15.25;;;11.50;;
37065;SDS011;22981;43.080;25.550;2023-02-15T13:53:56;13.63;;;11.03;;
37065;SDS011;22981;43.080;25.550;2023-02-15T13:56:36;14.38;;;11.38;;
37065;SDS011;22981;43.080;25.550;2023-02-15T14:22:02;16.93;;;12.68;;
37065;SDS011;22981;43.080;25.550;2023-02-15T14:24:38;16.00;;;12.43;;
37065;SDS011;22981;43.080;25.550;2023-02-15T14:27:17;16.30;;;12.10;;
37065;SDS011;22981;43.080;25.550;2023-02-15T14:30:09;302.62;;;151.50;;
37065;SDS011;22981;43.080;25.550;2023-02-15T14:32:31;211.10;;;139.68;;
37065;SDS011;22981;43.080;25.550;2023-02-15T14:35:16;81.92;;;64.95;;
37065;SDS011;22981;43.080;25.550;2023-02-15T14:49:03;16.05;;;12.05;;
37065;SDS011;22981;43.080;25.550;2023-02-15T14:59:37;17.43;;;14.27;;
37065;SDS011;22981;43.080;25.550;2023-02-15T15:05:20;16.73;;;13.13;;
37065;SDS011;22981;43.080;25.550;2023-02-15T15:08:00;15.58;;;12.88;;
37065;SDS011;22981;43.080;25.550;2023-02-15T15:10:35;18.75;;;14.43;;
37065;SDS011;22981;43.080;25.550;2023-02-15T15:15:50;17.75;;;14.15;;
37065;SDS011;22981;43.080;25.550;2023-02-15T15:18:42;18.40;;;14.68;;
37065;SDS011;22981;43.080;25.550;2023-02-15T15:21:10;17.65;;;14.90;;
37065;SDS011;22981;43.080;25.550;2023-02-15T15:23:40;19.57;;;16.12;;
37065;SDS011;22981;43.080;25.550;2023-02-15T15:26:23;19.37;;;15.88;;
37065;SDS011;22981;43.080;25.550;2023-02-15T15:28:52;15.17;;;11.90;;
37065;SDS011;22981;43.080;25.550;2023-02-15T15:31:41;20.12;;;15.20;;
37065;SDS011;22981;43.080;25.550;2023-02-15T15:39:30;19.92;;;14.47;;
37065;SDS011;22981;43.080;25.550;2023-02-15T15:45:16;23.20;;;19.92;;
37065;SDS011;22981;43.080;25.550;2023-02-15T15:47:52;19.27;;;14.80;;
37065;SDS011;22981;43.080;25.550;2023-02-15T15:50:24;25.65;;;15.05;;
37065;SDS011;22981;43.080;25.550;2023-02-15T15:52:53;19.32;;;14.70;;
37065;SDS011;22981;43.080;25.550;2023-02-15T15:55:23;18.20;;;13.98;;
37065;SDS011;22981;43.080;25.550;2023-02-15T15:57:53;19.52;;;14.45;;
37065;SDS011;22981;43.080;25.550;2023-02-15T16:00:36;22.15;;;15.23;;
37065;SDS011;22981;43.080;25.550;2023-02-15T16:05:52;19.95;;;15.95;;
37065;SDS011;22981;43.080;25.550;2023-02-15T16:08:36;17.27;;;13.93;;
37065;SDS011;22981;43.080;25.550;2023-02-15T16:11:14;20.57;;;15.10;;
37065;SDS011;22981;43.080;25.550;2023-02-15T16:13:40;23.75;;;15.68;;
37065;SDS011;22981;43.080;25.550;2023-02-15T16:16:08;28.75;;;16.75;;
37065;SDS011;22981;43.080;25.550;2023-02-15T16:18:43;23.22;;;17.30;;
37065;SDS011;22981;43.080;25.550;2023-02-15T16:21:19;20.77;;;17.20;;
37065;SDS011;22981;43.080;25.550;2023-02-15T16:29:31;27.93;;;19.50;;
37065;SDS011;22981;43.080;25.550;2023-02-15T16:32:01;29.10;;;19.25;;
37065;SDS011;22981;43.080;25.550;2023-02-15T16:34:33;28.42;;;19.27;;
37065;SDS011;22981;43.080;25.550;2023-02-15T16:37:16;25.77;;;19.05;;
37065;SDS011;22981;43.080;25.550;2023-02-15T16:39:47;23.05;;;18.35;;
37065;SDS011;22981;43.080;25.550;2023-02-15T16:42:15;23.80;;;18.55;;
37065;SDS011;22981;43.080;25.550;2023-02-15T16:44:49;24.87;;;16.65;;
37065;SDS011;22981;43.080;25.550;2023-02-15T16:47:17;24.23;;;16.75;;
37065;SDS011;22981;43.080;25.550;2023-02-15T16:49:49;22.95;;;16.23;;
37065;SDS011;22981;43.080;25.550;2023-02-15T16:52:22;21.82;;;17.45;;
37065;SDS011;22981;43.080;25.550;2023-02-15T16:54:55;25.68;;;18.50;;
37065;SDS011;22981;43.080;25.550;2023-02-15T16:57:26;34.73;;;23.50;;
37065;SDS011;22981;43.080;25.550;2023-02-15T16:59:56;38.42;;;28.52;;
37065;SDS011;22981;43.080;25.550;2023-02-15T17:02:27;33.23;;;24.57;;
37065;SDS011;22981;43.080;25.550;2023-02-15T17:05:01;30.62;;;23.73;;
37065;SDS011;22981;43.080;25.550;2023-02-15T17:10:33;29.48;;;21.07;;
37065;SDS011;22981;43.080;25.550;2023-02-15T17:13:02;30.75;;;22.00;;
37065;SDS011;22981;43.080;25.550;2023-02-15T17:15:42;36.40;;;24.27;;